Time;durP1;ratioP1;P1;durP2;ratioP2;P2;SDS_P1;SDS_P2;PMS_P1;PMS_P2;Temp;Humidity;BMP_temperature;BMP_pressure;BME280_temperature;BME280_humidity;BME280_pressure;Samples;Min_cycle;Max_cycle;Signal;HPM_P1;HPM_P2
2022/08/29 00:01:48;;;;;;;4.90;2.40;;;;;;;;;;5118891;27;20039;-82
2022/08/29 00:04:14;;;;;;;5.32;2.42;;;;;;;;;;5111638;27;20050;-81
2022/08/29 00:06:40;;;;;;;4.32;3.00;;;;;;;;;;5131648;27;20043;-81
2022/08/29 00:09:06;;;;;;;4.25;2.67;;;;;;;;;;5130666;27;20070;-81
2022/08/29 00:11:32;;;;;;;6.32;2.85;;;;;;;;;;5118697;27;20043;-82
2022/08/29 00:13:59;;;;;;;2.60;2.20;;;;;;;;;;5131235;27;20039;-82
2022/08/29 00:16:25;;;;;;;3.58;2.50;;;;;;;;;;5119017;27;20170;-81
2022/08/29 00:18:51;;;;;;;6.68;2.10;;;;;;;;;;5127851;27;20049;-82
2022/08/29 00:21:17;;;;;;;4.15;2.22;;;;;;;;;;5118348;27;20035;-81
2022/08/29 00:23:44;;;;;;;4.47;2.30;;;;;;;;;;5120331;27;20043;-81
2022/08/29 00:26:10;;;;;;;2.45;2.10;;;;;;;;;;5121392;27;20133;-82
2022/08/29 00:28:36;;;;;;;2.40;2.20;;;;;;;;;;5116331;27;20126;-83
2022/08/29 00:31:02;;;;;;;4.45;2.33;;;;;;;;;;5129648;27;20042;-81
2022/08/29 00:33:28;;;;;;;4.50;2.50;;;;;;;;;;5116408;27;20043;-82
2022/08/29 00:35:54;;;;;;;2.63;2.08;;;;;;;;;;5132951;27;20535;-82
2022/08/29 00:38:20;;;;;;;6.80;3.13;;;;;;;;;;5133392;27;20042;-81
2022/08/29 00:40:48;;;;;;;4.13;2.60;;;;;;;;;;5137416;27;20074;-82
2022/08/29 00:43:14;;;;;;;5.28;2.75;;;;;;;;;;5114143;27;20051;-81
2022/08/29 00:45:45;;;;;;;7.63;2.90;;;;;;;;;;5116154;27;20114;-82
2022/08/29 00:48:13;;;;;;;4.75;3.08;;;;;;;;;;5124537;27;20085;-82
2022/08/29 00:50:39;;;;;;;5.22;3.08;;;;;;;;;;5137409;27;20043;-80
2022/08/29 00:53:08;;;;;;;4.65;2.90;;;;;;;;;;5140795;27;20049;-81
2022/08/29 00:55:36;;;;;;;4.72;2.83;;;;;;;;;;5136585;27;20035;-82
2022/08/29 00:58:05;;;;;;;5.43;3.30;;;;;;;;;;5125170;27;20046;-81
2022/08/29 01:00:32;;;;;;;4.03;2.72;;;;;;;;;;5128996;27;20077;-82
2022/08/29 01:02:58;;;;;;;4.43;3.00;;;;;;;;;;5128829;27;20050;-82
2022/08/29 01:05:24;;;;;;;5.57;3.13;;;;;;;;;;5143307;27;20049;-81
2022/08/29 01:07:51;;;;;;;5.13;3.00;;;;;;;;;;5132841;27;20046;-82
2022/08/29 01:13:04;;;;;;;6.93;3.20;;;;;;;;;;5118704;27;20133;-81
2022/08/29 01:15:31;;;;;;;4.43;2.78;;;;;;;;;;5124179;27;20041;-82
2022/08/29 01:17:58;;;;;;;3.03;2.47;;;;;;;;;;5140817;27;20159;-82
2022/08/29 01:20:24;;;;;;;3.47;2.55;;;;;;;;;;5140827;27;20043;-82
2022/08/29 01:22:55;;;;;;;2.85;2.25;;;;;;;;;;5135624;27;20510;-82
2022/08/29 01:25:23;;;;;;;3.70;2.67;;;;;;;;;;5120141;27;20043;-82
2022/08/29 01:27:58;;;;;;;3.53;2.42;;;;;;;;;;5124200;27;20506;-82
2022/08/29 01:30:25;;;;;;;3.35;2.63;;;;;;;;;;5125201;27;20053;-82
2022/08/29 01:32:51;;;;;;;3.58;2.72;;;;;;;;;;5131886;27;20961;-82
2022/08/29 01:35:17;;;;;;;4.22;2.75;;;;;;;;;;5121378;27;20035;-81
2022/08/29 01:37:43;;;;;;;2.92;2.60;;;;;;;;;;5133496;27;20047;-81
2022/08/29 01:40:10;;;;;;;3.58;2.28;;;;;;;;;;5146392;27;20034;-81
2022/08/29 01:42:36;;;;;;;5.38;2.63;;;;;;;;;;5142073;27;20042;-82
2022/08/29 01:45:02;;;;;;;3.40;2.58;;;;;;;;;;5119150;27;20039;-82
2022/08/29 01:47:31;;;;;;;3.13;2.60;;;;;;;;;;5128230;27;20051;-82
2022/08/29 01:49:57;;;;;;;5.97;2.55;;;;;;;;;;5120489;27;20035;-82
2022/08/29 01:52:23;;;;;;;4.25;2.65;;;;;;;;;;5142304;27;20042;-81
2022/08/29 01:54:49;;;;;;;3.88;2.45;;;;;;;;;;5134563;27;20039;-82
2022/08/29 01:57:16;;;;;;;4.85;2.67;;;;;;;;;;5140924;27;20039;-82
2022/08/29 01:59:42;;;;;;;6.63;2.85;;;;;;;;;;5138893;27;20425;-82
2022/08/29 02:02:10;;;;;;;3.20;2.30;;;;;;;;;;5117208;27;20464;-81
2022/08/29 02:04:39;;;;;;;3.75;2.42;;;;;;;;;;5115984;27;20043;-81
2022/08/29 02:07:05;;;;;;;4.28;2.50;;;;;;;;;;5137948;27;20050;-81
2022/08/29 02:09:32;;;;;;;4.05;2.50;;;;;;;;;;5137901;27;20050;-81
2022/08/29 02:12:01;;;;;;;5.03;2.78;;;;;;;;;;5117083;27;20043;-82
2022/08/29 02:14:28;;;;;;;4.47;2.55;;;;;;;;;;5144418;27;21522;-81
2022/08/29 02:16:54;;;;;;;4.82;2.42;;;;;;;;;;5121995;27;20043;-81
2022/08/29 02:19:21;;;;;;;4.80;2.60;;;;;;;;;;5135528;27;20459;-81
2022/08/29 02:21:47;;;;;;;6.03;2.70;;;;;;;;;;5124347;27;20047;-81
2022/08/29 02:24:16;;;;;;;5.57;3.00;;;;;;;;;;5116682;27;20133;-82
2022/08/29 02:26:42;;;;;;;5.20;2.70;;;;;;;;;;5135452;27;20039;-81
2022/08/29 02:29:09;;;;;;;7.53;3.30;;;;;;;;;;5141382;27;20045;-82
2022/08/29 02:31:37;;;;;;;4.90;3.15;;;;;;;;;;5131522;27;20544;-81
2022/08/29 02:34:03;;;;;;;5.10;2.65;;;;;;;;;;5137835;27;20053;-82
2022/08/29 02:36:29;;;;;;;6.35;2.92;;;;;;;;;;5132062;27;20139;-81
2022/08/29 02:38:55;;;;;;;8.32;3.15;;;;;;;;;;5141758;27;20123;-82
2022/08/29 02:41:21;;;;;;;7.82;2.90;;;;;;;;;;5131790;27;20486;-81
2022/08/29 02:43:47;;;;;;;5.82;3.28;;;;;;;;;;5142866;27;20042;-82
2022/08/29 02:46:15;;;;;;;8.38;2.92;;;;;;;;;;5123291;27;20047;-82
2022/08/29 02:48:42;;;;;;;5.60;2.67;;;;;;;;;;5136212;27;20050;-81
2022/08/29 02:51:08;;;;;;;4.50;2.75;;;;;;;;;;5135437;27;20497;-81
2022/08/29 02:53:34;;;;;;;5.80;2.85;;;;;;;;;;5125057;27;20035;-82
2022/08/29 02:56:01;;;;;;;4.25;2.60;;;;;;;;;;5114855;27;20046;-82
2022/08/29 02:58:27;;;;;;;5.63;2.83;;;;;;;;;;5124590;27;20042;-81
2022/08/29 03:00:53;;;;;;;5.18;2.85;;;;;;;;;;5134525;27;20493;-81
2022/08/29 03:03:20;;;;;;;5.90;2.92;;;;;;;;;;5136487;27;20067;-80
2022/08/29 03:05:46;;;;;;;3.88;2.75;;;;;;;;;;5131254;27;20046;-81
2022/08/29 03:08:13;;;;;;;7.20;2.97;;;;;;;;;;5112260;27;20043;-81
2022/08/29 03:10:40;;;;;;;8.35;3.38;;;;;;;;;;5117067;27;20100;-81
2022/08/29 03:13:06;;;;;;;3.80;2.78;;;;;;;;;;5132551;27;20539;-80
2022/08/29 03:15:32;;;;;;;5.55;3.42;;;;;;;;;;5137377;27;20042;-81
2022/08/29 03:17:58;;;;;;;4.70;2.90;;;;;;;;;;5133010;27;20045;-81
2022/08/29 03:20:24;;;;;;;6.05;2.97;;;;;;;;;;5130600;27;20034;-81
2022/08/29 03:22:51;;;;;;;4.40;3.25;;;;;;;;;;5114111;27;20578;-81
2022/08/29 03:25:17;;;;;;;4.30;2.80;;;;;;;;;;5115893;27;20040;-81
2022/08/29 03:27:43;;;;;;;3.97;3.15;;;;;;;;;;5116697;27;20125;-81
2022/08/29 03:30:11;;;;;;;5.95;2.80;;;;;;;;;;5117761;27;20064;-80
2022/08/29 03:32:37;;;;;;;6.03;3.22;;;;;;;;;;5113416;27;20046;-81
2022/08/29 03:35:04;;;;;;;4.78;3.13;;;;;;;;;;5131578;27;20085;-81
2022/08/29 03:37:30;;;;;;;5.85;2.70;;;;;;;;;;5138617;27;20045;-81
2022/08/29 03:39:56;;;;;;;3.28;2.70;;;;;;;;;;5145429;27;20039;-81
2022/08/29 03:42:22;;;;;;;4.13;2.65;;;;;;;;;;5118701;27;20537;-81
2022/08/29 03:44:48;;;;;;;5.03;2.70;;;;;;;;;;5120778;27;20038;-81
2022/08/29 03:47:14;;;;;;;4.78;2.72;;;;;;;;;;5117813;27;20414;-81
2022/08/29 03:49:40;;;;;;;3.70;2.45;;;;;;;;;;5116721;27;20035;-81
2022/08/29 03:52:08;;;;;;;4.97;2.53;;;;;;;;;;5139527;27;20394;-81
2022/08/29 03:54:35;;;;;;;4.10;2.80;;;;;;;;;;5112750;27;20085;-81
2022/08/29 03:57:01;;;;;;;3.20;2.50;;;;;;;;;;5120632;27;20419;-81
2022/08/29 03:59:27;;;;;;;4.22;2.50;;;;;;;;;;5115590;27;20482;-81
2022/08/29 04:01:53;;;;;;;5.72;2.55;;;;;;;;;;5113520;27;20035;-81
2022/08/29 04:07:13;;;;;;;3.80;2.03;;;;;;;;;;5116632;27;20103;-81
2022/08/29 04:09:39;;;;;;;3.53;2.30;;;;;;;;;;5131469;27;20465;-81
2022/08/29 04:12:06;;;;;;;5.72;2.45;;;;;;;;;;5129185;27;20034;-81
2022/08/29 04:14:33;;;;;;;6.28;2.30;;;;;;;;;;5118268;27;20075;-81
2022/08/29 04:17:00;;;;;;;3.38;2.25;;;;;;;;;;5136680;27;20038;-81
2022/08/29 04:19:26;;;;;;;2.42;2.22;;;;;;;;;;5118649;27;20054;-80
2022/08/29 04:21:52;;;;;;;6.28;2.28;;;;;;;;;;5144180;27;20057;-81
2022/08/29 04:24:19;;;;;;;3.60;2.40;;;;;;;;;;5126203;27;20054;-81
2022/08/29 04:26:45;;;;;;;8.57;2.20;;;;;;;;;;5148798;27;20126;-80
2022/08/29 04:29:12;;;;;;;6.68;2.15;;;;;;;;;;5121574;27;20085;-82
2022/08/29 04:31:39;;;;;;;3.75;2.10;;;;;;;;;;5133961;27;20565;-80
2022/08/29 04:34:06;;;;;;;3.78;2.13;;;;;;;;;;5127602;27;21396;-80
2022/08/29 04:36:36;;;;;;;5.07;2.35;;;;;;;;;;5137118;27;20575;-80
2022/08/29 04:39:02;;;;;;;2.30;2.05;;;;;;;;;;5135985;27;20050;-81
2022/08/29 04:41:28;;;;;;;2.78;1.95;;;;;;;;;;5120878;27;20049;-81
2022/08/29 04:43:54;;;;;;;3.45;1.92;;;;;;;;;;5136945;27;20133;-81
2022/08/29 04:46:20;;;;;;;2.58;1.77;;;;;;;;;;5120967;27;20047;-81
2022/08/29 04:48:46;;;;;;;3.70;2.08;;;;;;;;;;5116922;27;20043;-81
2022/08/29 04:51:13;;;;;;;2.95;1.90;;;;;;;;;;5135156;27;20062;-81
2022/08/29 04:53:39;;;;;;;5.28;2.20;;;;;;;;;;5111707;27;20039;-81
2022/08/29 04:56:09;;;;;;;3.22;1.98;;;;;;;;;;5116010;27;20080;-81
2022/08/29 04:58:36;;;;;;;3.28;2.08;;;;;;;;;;5113890;27;20594;-81
2022/08/29 05:01:02;;;;;;;1.95;1.70;;;;;;;;;;5128875;27;20054;-81
2022/08/29 05:03:28;;;;;;;5.38;2.05;;;;;;;;;;5117356;27;20043;-80
2022/08/29 05:05:55;;;;;;;2.00;1.88;;;;;;;;;;5128018;27;20083;-80
2022/08/29 05:08:22;;;;;;;5.55;2.17;;;;;;;;;;5112634;27;20166;-81
2022/08/29 05:10:48;;;;;;;4.05;1.80;;;;;;;;;;5129605;27;20039;-81
2022/08/29 05:13:14;;;;;;;5.75;2.08;;;;;;;;;;5133572;27;20071;-81
2022/08/29 05:15:40;;;;;;;3.17;2.30;;;;;;;;;;5129690;27;20031;-80
2022/08/29 05:18:06;;;;;;;3.55;2.20;;;;;;;;;;5131895;27;20045;-81
2022/08/29 05:20:32;;;;;;;4.45;2.25;;;;;;;;;;5132823;27;20122;-81
2022/08/29 05:22:59;;;;;;;2.92;2.08;;;;;;;;;;5130477;27;20078;-80
2022/08/29 05:25:25;;;;;;;4.40;2.30;;;;;;;;;;5113575;27;20148;-81
2022/08/29 05:27:51;;;;;;;5.70;2.10;;;;;;;;;;5132332;27;20047;-81
2022/08/29 05:30:17;;;;;;;3.33;2.08;;;;;;;;;;5113642;27;20089;-81
2022/08/29 05:32:43;;;;;;;6.32;2.55;;;;;;;;;;5128631;27;20126;-81
2022/08/29 05:35:10;;;;;;;6.18;2.45;;;;;;;;;;5113715;27;20492;-80
2022/08/29 05:37:36;;;;;;;6.07;2.80;;;;;;;;;;5112350;27;20051;-81
2022/08/29 05:40:03;;;;;;;5.45;2.42;;;;;;;;;;5111110;27;20062;-81
2022/08/29 05:42:29;;;;;;;5.50;2.20;;;;;;;;;;5138148;27;20047;-81
2022/08/29 05:44:55;;;;;;;5.13;2.63;;;;;;;;;;5122428;27;20042;-81
2022/08/29 05:47:21;;;;;;;8.20;2.30;;;;;;;;;;5112484;27;20112;-81
2022/08/29 05:49:48;;;;;;;6.00;2.15;;;;;;;;;;5125730;27;20073;-81
2022/08/29 05:52:15;;;;;;;6.60;2.47;;;;;;;;;;5118860;27;20482;-81
2022/08/29 05:54:42;;;;;;;7.05;2.75;;;;;;;;;;5125232;27;20050;-81
2022/08/29 05:57:10;;;;;;;6.78;2.28;;;;;;;;;;5143466;27;20446;-81
2022/08/29 05:59:36;;;;;;;4.30;2.00;;;;;;;;;;5128308;27;20118;-82
2022/08/29 06:02:03;;;;;;;7.45;2.13;;;;;;;;;;5119422;27;20047;-82
2022/08/29 06:04:29;;;;;;;5.47;2.40;;;;;;;;;;5137964;27;20134;-81
2022/08/29 06:06:55;;;;;;;4.78;2.28;;;;;;;;;;5129611;27;20043;-81
2022/08/29 06:09:21;;;;;;;5.13;2.20;;;;;;;;;;5142876;27;20050;-80
2022/08/29 06:11:48;;;;;;;4.80;2.33;;;;;;;;;;5129409;27;20398;-80
2022/08/29 06:14:15;;;;;;;5.60;2.03;;;;;;;;;;5133451;27;20046;-79
2022/08/29 06:16:41;;;;;;;4.25;2.22;;;;;;;;;;5123350;27;20043;-80
2022/08/29 06:19:07;;;;;;;5.35;2.10;;;;;;;;;;5118418;27;20043;-81
2022/08/29 06:21:33;;;;;;;6.00;2.15;;;;;;;;;;5139585;27;20081;-79
2022/08/29 06:23:59;;;;;;;4.32;2.05;;;;;;;;;;5125417;27;20047;-80
2022/08/29 06:26:25;;;;;;;5.13;2.25;;;;;;;;;;5130849;27;20051;-81
2022/08/29 06:28:51;;;;;;;5.00;2.17;;;;;;;;;;5115205;27;20061;-82
2022/08/29 06:31:23;;;;;;;4.55;2.00;;;;;;;;;;5123597;27;20041;-81
2022/08/29 06:33:50;;;;;;;9.23;2.33;;;;;;;;;;5117943;27;20047;-81
2022/08/29 06:36:16;;;;;;;3.92;2.20;;;;;;;;;;5114460;27;20122;-81
2022/08/29 06:38:43;;;;;;;6.20;2.50;;;;;;;;;;5136108;27;20046;-81
2022/08/29 06:41:12;;;;;;;5.10;2.60;;;;;;;;;;5145361;27;20129;-81
2022/08/29 06:43:38;;;;;;;4.30;2.40;;;;;;;;;;5114782;27;20047;-82
2022/08/29 06:46:04;;;;;;;3.80;2.20;;;;;;;;;;5142107;27;20122;-82
2022/08/29 06:48:30;;;;;;;4.32;1.88;;;;;;;;;;5135080;27;20046;-82
2022/08/29 06:50:57;;;;;;;4.00;1.73;;;;;;;;;;5121629;27;20047;-82
2022/08/29 06:53:23;;;;;;;5.15;1.80;;;;;;;;;;5137644;27;20187;-81
2022/08/29 06:55:49;;;;;;;4.70;2.28;;;;;;;;;;5148261;27;20080;-82
2022/08/29 06:58:15;;;;;;;3.78;1.83;;;;;;;;;;5138983;27;20128;-80
2022/08/29 07:00:41;;;;;;;5.25;2.20;;;;;;;;;;5128212;27;20051;-80
2022/08/29 07:03:07;;;;;;;4.07;2.10;;;;;;;;;;5130259;27;20041;-81
2022/08/29 07:05:33;;;;;;;3.78;1.92;;;;;;;;;;5150870;27;20410;-81
2022/08/29 07:07:59;;;;;;;2.67;1.85;;;;;;;;;;5128274;27;20049;-81
2022/08/29 07:10:26;;;;;;;4.75;2.28;;;;;;;;;;5130001;27;20238;-80
2022/08/29 07:12:52;;;;;;;6.00;2.25;;;;;;;;;;5130492;27;20490;-81
2022/08/29 07:15:19;;;;;;;5.85;2.30;;;;;;;;;;5146677;27;20516;-80
2022/08/29 07:17:46;;;;;;;7.18;2.42;;;;;;;;;;5144292;27;20038;-80
2022/08/29 07:20:12;;;;;;;5.35;1.98;;;;;;;;;;5125014;27;20039;-81
2022/08/29 07:22:38;;;;;;;5.05;2.25;;;;;;;;;;5130415;27;20046;-81
2022/08/29 07:25:05;;;;;;;4.63;1.90;;;;;;;;;;5142522;27;20039;-81
2022/08/29 07:27:31;;;;;;;3.78;1.77;;;;;;;;;;5126771;27;20058;-81
2022/08/29 07:29:59;;;;;;;3.97;2.05;;;;;;;;;;5124771;27;20054;-81
2022/08/29 07:32:25;;;;;;;5.10;2.10;;;;;;;;;;5148040;27;21152;-82
2022/08/29 07:34:51;;;;;;;5.13;1.90;;;;;;;;;;5124770;27;20042;-81
2022/08/29 07:37:17;;;;;;;3.40;1.63;;;;;;;;;;5122861;27;20035;-81
2022/08/29 07:39:43;;;;;;;2.38;1.65;;;;;;;;;;5134484;27;20126;-81
2022/08/29 07:42:09;;;;;;;3.33;1.90;;;;;;;;;;5152804;27;20050;-81
2022/08/29 07:44:35;;;;;;;5.43;2.13;;;;;;;;;;5138650;27;20031;-81
2022/08/29 07:47:01;;;;;;;3.30;1.92;;;;;;;;;;5128562;27;20046;-82
2022/08/29 07:49:30;;;;;;;3.38;1.80;;;;;;;;;;5128962;27;20447;-81
2022/08/29 07:51:57;;;;;;;3.05;1.83;;;;;;;;;;5144806;27;20039;-82
2022/08/29 07:54:23;;;;;;;4.95;1.95;;;;;;;;;;5139077;27;20486;-81
2022/08/29 07:56:53;;;;;;;2.65;1.70;;;;;;;;;;5151099;27;20123;-81
2022/08/29 07:59:20;;;;;;;3.10;1.88;;;;;;;;;;5127797;27;20096;-81
2022/08/29 08:01:46;;;;;;;6.70;1.92;;;;;;;;;;5137543;27;20038;-81
2022/08/29 08:04:12;;;;;;;3.42;1.80;;;;;;;;;;5129967;27;20439;-81
2022/08/29 08:06:39;;;;;;;6.32;2.10;;;;;;;;;;5146140;27;20448;-82
2022/08/29 08:09:06;;;;;;;4.78;2.00;;;;;;;;;;5148895;27;20042;-82
2022/08/29 08:11:32;;;;;;;5.22;2.00;;;;;;;;;;5148379;27;20046;-82
2022/08/29 08:13:58;;;;;;;4.05;1.90;;;;;;;;;;5152568;27;20051;-81
2022/08/29 08:16:25;;;;;;;3.30;1.70;;;;;;;;;;5160631;27;20032;-81
2022/08/29 08:18:52;;;;;;;3.53;2.10;;;;;;;;;;5154211;27;20581;-81
2022/08/29 08:21:18;;;;;;;5.65;2.03;;;;;;;;;;5149684;27;20043;-81
2022/08/29 08:23:44;;;;;;;3.58;2.03;;;;;;;;;;5159250;27;20075;-80
2022/08/29 08:26:11;;;;;;;5.53;1.83;;;;;;;;;;5128231;27;20803;-81
2022/08/29 08:28:37;;;;;;;3.17;1.85;;;;;;;;;;5148661;27;20054;-81
2022/08/29 08:31:05;;;;;;;4.18;1.90;;;;;;;;;;5155022;27;20066;-81
2022/08/29 08:33:31;;;;;;;3.75;1.70;;;;;;;;;;5135873;27;20050;-81
2022/08/29 08:35:57;;;;;;;3.10;2.00;;;;;;;;;;5134089;27;20031;-81
2022/08/29 08:38:23;;;;;;;3.60;1.90;;;;;;;;;;5141235;27;20389;-81
2022/08/29 08:41:05;;;;;;;4.90;2.13;;;;;;;;;;5150853;27;20732;-81
2022/08/29 08:43:58;;;;;;;3.80;1.92;;;;;;;;;;5134301;27;20614;-82
2022/08/29 08:46:28;;;;;;;2.95;1.73;;;;;;;;;;5129180;27;20428;-82
2022/08/29 08:48:56;;;;;;;3.58;2.10;;;;;;;;;;5131538;27;20397;-82
2022/08/29 08:51:28;;;;;;;5.38;2.13;;;;;;;;;;5133458;27;20121;-82
2022/08/29 08:53:56;;;;;;;3.72;2.10;;;;;;;;;;5135011;27;20047;-82
2022/08/29 08:56:28;;;;;;;5.63;2.20;;;;;;;;;;5136925;27;20388;-83
2022/08/29 08:59:01;;;;;;;5.35;2.20;;;;;;;;;;5130326;27;20078;-83
2022/08/29 09:01:39;;;;;;;4.10;2.25;;;;;;;;;;5151076;27;20437;-81
2022/08/29 09:04:24;;;;;;;4.03;1.90;;;;;;;;;;5144462;27;20043;-81
2022/08/29 09:06:59;;;;;;;5.00;2.20;;;;;;;;;;5151068;27;20043;-81
2022/08/29 09:09:41;;;;;;;5.50;2.30;;;;;;;;;;5133622;27;20051;-82
2022/08/29 09:12:26;;;;;;;3.78;1.85;;;;;;;;;;5135491;27;20046;-83
2022/08/29 09:15:00;;;;;;;2.63;1.90;;;;;;;;;;5126477;27;20672;-81
2022/08/29 09:17:35;;;;;;;4.43;1.90;;;;;;;;;;5147910;27;20043;-82
2022/08/29 09:20:02;;;;;;;5.90;2.28;;;;;;;;;;5145392;27;20076;-82
2022/08/29 09:22:29;;;;;;;5.70;2.42;;;;;;;;;;5149438;27;20046;-83
2022/08/29 09:25:14;;;;;;;3.28;1.92;;;;;;;;;;5151467;27;20126;-82
2022/08/29 09:27:40;;;;;;;6.78;2.05;;;;;;;;;;5128927;27;20073;-82
2022/08/29 09:30:08;;;;;;;2.85;2.03;;;;;;;;;;5128814;27;20062;-81
2022/08/29 09:32:50;;;;;;;4.65;2.05;;;;;;;;;;5159216;27;20076;-81
2022/08/29 09:35:23;;;;;;;7.22;2.25;;;;;;;;;;5152530;27;20486;-82
2022/08/29 09:38:15;;;;;;;6.30;2.20;;;;;;;;;;5140733;27;20051;-81
2022/08/29 09:40:53;;;;;;;5.80;2.15;;;;;;;;;;5126901;27;20042;-81
2022/08/29 09:43:21;;;;;;;4.72;2.20;;;;;;;;;;5121839;27;20054;-80
2022/08/29 09:46:06;;;;;;;7.25;2.40;;;;;;;;;;5127482;27;20042;-80
2022/08/29 09:48:33;;;;;;;5.20;2.13;;;;;;;;;;5125255;27;20054;-79
2022/08/29 09:51:14;;;;;;;4.63;2.40;;;;;;;;;;5146568;27;20151;-79
2022/08/29 09:53:40;;;;;;;9.00;2.80;;;;;;;;;;5142283;27;20130;-79
2022/08/29 09:56:08;;;;;;;4.53;2.28;;;;;;;;;;5154917;27;20129;-79
2022/08/29 09:58:36;;;;;;;5.95;2.47;;;;;;;;;;5144449;27;20068;-81
2022/08/29 10:01:02;;;;;;;3.42;2.22;;;;;;;;;;5123951;27;20137;-81
2022/08/29 10:03:29;;;;;;;6.55;2.55;;;;;;;;;;5127974;27;20510;-81
2022/08/29 10:06:11;;;;;;;6.70;2.80;;;;;;;;;;5142182;27;20439;-81
2022/08/29 10:08:38;;;;;;;5.47;2.33;;;;;;;;;;5130478;27;20128;-81
2022/08/29 10:11:07;;;;;;;3.83;2.47;;;;;;;;;;5152279;27;20046;-81
2022/08/29 10:13:55;;;;;;;4.20;2.30;;;;;;;;;;5124741;27;20113;-81
2022/08/29 10:16:27;;;;;;;3.65;2.15;;;;;;;;;;5142517;27;20035;-79
2022/08/29 10:18:57;;;;;;;6.30;2.10;;;;;;;;;;5121785;27;20031;-81
2022/08/29 10:21:40;;;;;;;4.88;2.17;;;;;;;;;;5144060;27;20038;-80
2022/08/29 10:24:06;;;;;;;;;;;;;;;;;;5142605;27;20070;-81
2022/08/29 10:26:37;;;;;;;4.57;2.50;;;;;;;;;;5122810;27;19965;-80
2022/08/29 10:29:38;;;;;;;5.38;2.38;;;;;;;;;;5127527;27;20050;-80
2022/08/29 10:32:25;;;;;;;5.22;2.33;;;;;;;;;;5040256;28;20047;-80
2022/08/29 10:34:54;;;;;;;7.35;2.63;;;;;;;;;;5118726;27;20051;-80
2022/08/29 10:37:46;;;;;;;7.35;2.42;;;;;;;;;;5128874;27;20087;-80
2022/08/29 10:40:26;;;;;;;6.50;2.42;;;;;;;;;;5122192;27;20042;-80
2022/08/29 10:42:56;;;;;;;5.18;2.10;;;;;;;;;;5120907;27;20045;-81
2022/08/29 10:45:34;;;;;;;6.65;2.63;;;;;;;;;;5139113;27;20047;-80
2022/08/29 10:48:20;;;;;;;6.63;2.47;;;;;;;;;;5132373;27;20126;-80
2022/08/29 10:50:59;;;;;;;5.80;2.58;;;;;;;;;;5145666;27;20117;-80
2022/08/29 10:53:32;;;;;;;3.97;2.30;;;;;;;;;;5131438;27;20559;-80
2022/08/29 10:55:59;;;;;;;3.90;2.15;;;;;;;;;;5130932;27;20622;-80
2022/08/29 10:58:34;;;;;;;6.07;2.50;;;;;;;;;;5131065;27;20046;-81
2022/08/29 11:01:12;;;;;;;7.78;2.30;;;;;;;;;;5155560;27;20049;-81
2022/08/29 11:04:02;;;;;;;6.47;2.80;;;;;;;;;;5135528;27;20094;-81
2022/08/29 11:06:30;;;;;;;4.47;2.40;;;;;;;;;;5139107;27;20126;-81
2022/08/29 11:09:07;;;;;;;6.63;2.75;;;;;;;;;;5125100;27;20431;-81
2022/08/29 11:11:35;;;;;;;4.72;2.50;;;;;;;;;;5137839;27;20513;-81
2022/08/29 11:14:06;;;;;;;6.28;2.60;;;;;;;;;;5139791;27;20111;-81
2022/08/29 11:16:35;;;;;;;6.70;2.50;;;;;;;;;;5119256;27;20039;-81
2022/08/29 11:19:14;;;;;;;5.85;2.75;;;;;;;;;;5123858;27;20034;-81
2022/08/29 11:21:46;;;;;;;9.70;2.60;;;;;;;;;;5149264;27;20498;-80
2022/08/29 11:24:14;;;;;;;6.10;2.63;;;;;;;;;;5119181;27;20039;-81
2022/08/29 11:26:43;;;;;;;7.60;2.90;;;;;;;;;;5141235;27;20059;-80
2022/08/29 11:29:24;;;;;;;6.55;3.13;;;;;;;;;;5145243;27;20038;-82
2022/08/29 11:32:04;;;;;;;9.10;3.00;;;;;;;;;;5121347;27;20039;-82
2022/08/29 11:34:45;;;;;;;5.72;2.60;;;;;;;;;;5157502;27;20044;-82
2022/08/29 11:37:15;;;;;;;10.30;3.20;;;;;;;;;;5142135;27;20043;-82
2022/08/29 11:39:47;;;;;;;6.63;2.90;;;;;;;;;;5113054;27;20050;-82
2022/08/29 11:42:15;;;;;;;6.63;2.63;;;;;;;;;;5132743;27;20118;-82
2022/08/29 11:44:50;;;;;;;8.60;2.70;;;;;;;;;;5128509;27;20050;-82
2022/08/29 11:47:36;;;;;;;6.47;2.58;;;;;;;;;;5125260;27;20111;-82
2022/08/29 11:50:23;;;;;;;4.93;2.85;;;;;;;;;;5133771;27;20371;-82
2022/08/29 11:52:51;;;;;;;6.28;2.70;;;;;;;;;;5110387;27;20051;-82
2022/08/29 11:55:32;;;;;;;7.70;2.63;;;;;;;;;;5140928;27;20042;-81
2022/08/29 11:58:04;;;;;;;8.77;3.30;;;;;;;;;;5138631;27;20116;-84
2022/08/29 12:00:38;;;;;;;8.57;2.90;;;;;;;;;;5125853;27;20041;-83
2022/08/29 12:03:24;;;;;;;4.85;2.95;;;;;;;;;;5143646;27;20359;-82
2022/08/29 12:05:56;;;;;;;9.73;3.10;;;;;;;;;;5122447;27;20078;-82
2022/08/29 12:08:41;;;;;;;6.87;2.97;;;;;;;;;;5124841;27;20053;-82
2022/08/29 12:11:07;;;;;;;5.93;2.83;;;;;;;;;;5146030;27;20087;-82
2022/08/29 12:13:57;;;;;;;5.63;2.50;;;;;;;;;;5123107;27;20054;-82
2022/08/29 12:16:24;;;;;;;4.80;2.70;;;;;;;;;;5136364;27;20106;-82
2022/08/29 12:18:51;;;;;;;7.30;3.10;;;;;;;;;;5123359;27;20102;-82
2022/08/29 12:21:40;;;;;;;6.20;2.88;;;;;;;;;;5115245;27;20050;-81
2022/08/29 12:24:25;;;;;;;6.93;2.55;;;;;;;;;;5140518;27;20101;-82
2022/08/29 12:26:51;;;;;;;6.70;2.75;;;;;;;;;;5120283;27;20034;-82
2022/08/29 12:29:23;;;;;;;8.32;2.70;;;;;;;;;;5141156;27;20043;-82
2022/08/29 12:32:04;;;;;;;6.03;2.83;;;;;;;;;;5127243;27;20118;-81
2022/08/29 12:34:46;;;;;;;4.88;2.35;;;;;;;;;;5130360;27;20047;-81
2022/08/29 12:37:27;;;;;;;3.60;2.50;;;;;;;;;;5131622;27;20050;-82
2022/08/29 12:40:01;;;;;;;5.53;2.60;;;;;;;;;;5126856;27;20388;-82
2022/08/29 12:42:33;;;;;;;4.40;2.35;;;;;;;;;;5148097;27;20046;-83
2022/08/29 12:45:02;;;;;;;5.87;2.83;;;;;;;;;;5117024;27;20391;-83
2022/08/29 12:47:31;;;;;;;5.47;2.80;;;;;;;;;;5141692;27;20062;-83
2022/08/29 12:49:59;;;;;;;5.63;2.70;;;;;;;;;;5147375;27;20046;-83
2022/08/29 12:52:26;;;;;;;4.88;2.85;;;;;;;;;;5144683;27;20113;-81
2022/08/29 12:54:53;;;;;;;6.28;2.50;;;;;;;;;;5122615;27;20393;-81
2022/08/29 12:57:25;;;;;;;5.68;2.67;;;;;;;;;;5137916;27;20130;-81
2022/08/29 12:59:52;;;;;;;7.45;2.75;;;;;;;;;;5134830;27;20497;-80
2022/08/29 13:02:24;;;;;;;8.32;2.65;;;;;;;;;;5119337;27;20043;-81
2022/08/29 13:04:50;;;;;;;4.47;2.42;;;;;;;;;;5116705;27;20134;-80
2022/08/29 13:07:17;;;;;;;6.47;2.63;;;;;;;;;;5137085;27;20223;-79
2022/08/29 13:09:53;;;;;;;7.72;2.80;;;;;;;;;;5124810;27;20047;-79
2022/08/29 13:12:19;;;;;;;6.18;2.80;;;;;;;;;;5119160;27;20183;-80
2022/08/29 13:14:46;;;;;;;6.45;2.55;;;;;;;;;;5130337;27;20553;-80
2022/08/29 13:17:14;;;;;;;4.22;2.60;;;;;;;;;;5143050;27;20034;-80
2022/08/29 13:19:40;;;;;;;7.22;2.60;;;;;;;;;;5136108;27;20050;-80
2022/08/29 13:22:11;;;;;;;4.65;2.97;;;;;;;;;;5139046;27;20051;-80
2022/08/29 13:24:37;;;;;;;5.68;2.75;;;;;;;;;;5116526;27;20129;-79
2022/08/29 13:27:03;;;;;;;5.35;2.22;;;;;;;;;;5139155;27;20062;-79
2022/08/29 13:29:34;;;;;;;5.55;2.63;;;;;;;;;;5136383;27;20554;-79
2022/08/29 13:32:19;;;;;;;7.70;3.08;;;;;;;;;;5140900;27;20042;-79
2022/08/29 13:35:17;;;;;;;9.05;3.00;;;;;;;;;;5145630;27;20035;-78
2022/08/29 13:37:44;;;;;;;5.10;2.47;;;;;;;;;;5057823;27;20130;-79
2022/08/29 13:40:31;;;;;;;6.15;2.70;;;;;;;;;;5144074;27;20043;-79
2022/08/29 13:42:58;;;;;;;5.10;2.72;;;;;;;;;;5142299;27;20039;-81
2022/08/29 13:45:25;;;;;;;6.82;2.75;;;;;;;;;;5143513;27;20053;-80
2022/08/29 13:47:53;;;;;;;6.45;2.60;;;;;;;;;;5126489;27;20522;-80
2022/08/29 13:50:19;;;;;;;5.82;2.60;;;;;;;;;;5140222;27;20034;-80
2022/08/29 13:52:45;;;;;;;7.00;2.80;;;;;;;;;;5136695;27;20840;-79
2022/08/29 13:55:11;;;;;;;6.22;2.67;;;;;;;;;;5126942;27;20887;-78
2022/08/29 13:57:39;;;;;;;5.18;3.05;;;;;;;;;;5129329;27;20047;-80
2022/08/29 14:00:06;;;;;;;9.35;2.90;;;;;;;;;;5136900;27;20496;-80
2022/08/29 14:02:32;;;;;;;7.95;2.60;;;;;;;;;;5124106;27;20107;-78
2022/08/29 14:04:58;;;;;;;6.57;2.60;;;;;;;;;;5143867;27;20037;-80
2022/08/29 14:07:26;;;;;;;8.88;3.05;;;;;;;;;;5125059;27;20137;-80
2022/08/29 14:09:53;;;;;;;5.38;2.75;;;;;;;;;;5139626;27;20054;-80
2022/08/29 14:12:19;;;;;;;5.35;2.60;;;;;;;;;;5147198;27;20050;-80
2022/08/29 14:14:45;;;;;;;6.97;2.70;;;;;;;;;;5120830;27;20115;-79
2022/08/29 14:17:13;;;;;;;4.88;2.90;;;;;;;;;;5144030;27;20054;-80
2022/08/29 14:19:40;;;;;;;7.03;2.38;;;;;;;;;;5126020;27;20051;-80
2022/08/29 14:22:07;;;;;;;7.07;2.70;;;;;;;;;;5134061;27;20051;-81
2022/08/29 14:24:33;;;;;;;8.60;2.70;;;;;;;;;;5115479;27;20162;-80
2022/08/29 14:27:00;;;;;;;6.20;2.60;;;;;;;;;;5116849;27;20047;-78
2022/08/29 14:29:26;;;;;;;6.55;2.42;;;;;;;;;;5115579;27;20039;-80
2022/08/29 14:31:53;;;;;;;4.63;2.45;;;;;;;;;;5109303;27;20126;-80
2022/08/29 14:34:19;;;;;;;5.80;2.33;;;;;;;;;;5112612;27;20039;-80
2022/08/29 14:36:45;;;;;;;6.30;2.55;;;;;;;;;;5111953;27;20039;-80
2022/08/29 14:39:11;;;;;;;4.00;2.40;;;;;;;;;;5118968;27;20039;-80
2022/08/29 14:41:38;;;;;;;7.13;3.08;;;;;;;;;;5118264;27;20114;-77
2022/08/29 14:44:04;;;;;;;4.88;2.50;;;;;;;;;;5130178;27;20391;-80
2022/08/29 14:46:30;;;;;;;6.03;2.58;;;;;;;;;;5125940;27;20180;-81
2022/08/29 14:48:56;;;;;;;7.18;2.55;;;;;;;;;;5128510;27;20407;-78
2022/08/29 14:51:22;;;;;;;4.97;2.30;;;;;;;;;;5119738;27;20095;-80
2022/08/29 14:53:52;;;;;;;8.10;2.45;;;;;;;;;;5132351;27;20043;-80
2022/08/29 14:56:18;;;;;;;7.00;2.50;;;;;;;;;;5125645;27;20048;-80
2022/08/29 14:58:44;;;;;;;6.63;2.30;;;;;;;;;;5124536;27;20395;-80
2022/08/29 15:01:10;;;;;;;6.57;2.35;;;;;;;;;;5123622;27;20036;-79